Terminal Aerodrome Forecast
Issued by NWS Cleveland, OH

Home | Current Version | Previous Version | Graphics & Text | Print | Product List | Glossary On
Versions: 1 2 3 4 5 6 7 8 9 10 11 12 13 14 15 16 17 18
000
FTUS41 KCLE 250527
TAFTOL
TAF
KTOL 250527Z 2506/2606 25008KT P6SM SKC
     FM250900 24005KT 5SM BR SCT020
      TEMPO 2509/2513 2SM BR BKN020
     FM251300 23007KT P6SM BKN025
      TEMPO 2513/2515 6SM BR SCT025 BKN250
     FM251500 24008KT P6SM BKN045
     FM251800 25012KT P6SM VCSH BKN045
      TEMPO 2520/2524 4SM TSRA BR OVC025CB
     FM260200 29005KT 5SM BR SCT025 BKN080=

USA.gov is the U.S. government's official web portal to all federal, state and local government web resources and services.